Time;durP1;ratioP1;P1;durP2;ratioP2;P2;SDS_P1;SDS_P2;PMS_P1;PMS_P2;Temp;Humidity;BMP_temperature;BMP_pressure;BME280_temperature;BME280_humidity;BME280_pressure;Samples;Min_cycle;Max_cycle;Signal;HPM_P1;HPM_P2
2021/03/29 00:01:43;;;;;;;10.13;8.10;;;;;;;13.02;45.15;100827.50;5016976;28;20105;-76
2021/03/29 00:04:09;;;;;;;11.25;7.85;;;;;;;13.17;44.46;100849.78;5016674;28;20109;-76
2021/03/29 00:06:35;;;;;;;8.23;7.38;;;;;;;13.17;44.71;100851.59;5016786;28;20026;-76
2021/03/29 00:09:03;;;;;;;12.70;10.00;;;;;;;13.08;44.40;100849.88;5016808;28;20029;-76
2021/03/29 00:11:31;;;;;;;10.18;9.10;;;;;;;13.24;44.63;100861.38;5015758;28;20026;-76
2021/03/29 00:13:56;;;;;;;12.50;9.13;;;;;;;13.18;44.80;100867.34;5016868;28;20429;-76
2021/03/29 00:16:23;;;;;;;10.40;8.32;;;;;;;13.16;44.74;100861.34;5016572;28;20036;-76
2021/03/29 00:18:49;;;;;;;8.75;7.10;;;;;;;12.95;44.19;100816.72;5016827;28;20451;-76
2021/03/29 00:21:15;;;;;;;9.82;7.68;;;;;;;13.14;43.98;100854.53;5015477;28;20021;-76
2021/03/29 00:23:41;;;;;;;8.65;7.50;;;;;;;13.24;44.38;100874.66;5015451;28;20026;-76
2021/03/29 00:26:07;;;;;;;9.40;7.63;;;;;;;13.23;44.22;100877.47;5016536;28;20420;-76
2021/03/29 00:28:33;;;;;;;9.90;7.80;;;;;;;13.18;44.20;100875.31;5015445;28;20432;-76
2021/03/29 00:30:59;;;;;;;9.88;8.88;;;;;;;12.96;44.13;100836.94;5016567;28;20022;-76
2021/03/29 00:33:26;;;;;;;12.13;9.27;;;;;;;13.15;44.46;100870.28;5016443;28;20033;-76
2021/03/29 00:35:53;;;;;;;10.65;9.18;;;;;;;13.27;44.31;100876.16;5016423;28;20022;-75
2021/03/29 00:38:20;;;;;;;9.93;8.95;;;;;;;13.04;44.42;100847.56;5015453;28;20337;-76
2021/03/29 00:40:49;;;;;;;10.35;8.90;;;;;;;13.24;44.37;100872.00;4998907;28;20021;-77
2021/03/29 00:43:15;;;;;;;9.48;7.97;;;;;;;13.24;44.08;100876.47;5016365;28;20026;-76
2021/03/29 00:45:42;;;;;;;10.63;8.82;;;;;;;13.21;44.31;100879.44;5016129;28;20341;-76
2021/03/29 00:48:09;;;;;;;9.38;8.02;;;;;;;12.81;44.61;100829.78;5016055;28;20459;-76
2021/03/29 00:50:46;;;;;;;9.90;8.35;;;;;;;13.09;44.90;100873.59;5016074;28;20036;-77
2021/03/29 00:53:13;;;;;;;11.77;8.68;;;;;;;13.08;44.76;100863.97;5015751;28;20022;-76
2021/03/29 00:55:41;;;;;;;12.32;9.38;;;;;;;13.12;45.15;100877.75;5015977;28;20022;-76
2021/03/29 00:58:08;;;;;;;11.90;10.07;;;;;;;12.98;44.87;100877.38;5015902;28;20403;-76
2021/03/29 01:00:44;;;;;;;14.25;11.48;;;;;;;12.85;45.49;100849.66;5015904;28;20025;-76
2021/03/29 01:03:25;;;;;;;11.35;9.23;;;;;;;13.04;45.43;100884.69;5015788;28;20034;-76
2021/03/29 01:06:04;;;;;;;12.55;9.18;;;;;;;12.96;45.56;100879.34;5015873;28;20029;-76
2021/03/29 01:08:31;;;;;;;10.70;8.95;;;;;;;12.87;45.36;100879.50;5016033;28;20037;-76
2021/03/29 01:10:58;;;;;;;10.38;9.13;;;;;;;12.79;45.60;100874.97;5015771;28;20037;-76
2021/03/29 01:13:24;;;;;;;10.68;9.25;;;;;;;12.93;44.96;100892.94;5015600;28;20477;-76
2021/03/29 01:15:50;;;;;;;9.73;8.70;;;;;;;12.86;45.32;100880.47;5015729;28;20475;-76
2021/03/29 01:18:18;;;;;;;10.88;8.55;;;;;;;12.96;44.78;100891.78;5015363;28;20049;-76
2021/03/29 01:20:52;;;;;;;10.38;8.73;;;;;;;12.94;45.23;100891.94;5015539;28;20081;-76
2021/03/29 01:23:19;;;;;;;11.20;8.63;;;;;;;12.92;45.14;100901.03;5015385;28;20095;-76
2021/03/29 01:25:48;;;;;;;9.40;8.40;;;;;;;12.89;45.59;100902.19;5015654;28;20037;-76
2021/03/29 01:28:17;;;;;;;10.80;8.45;;;;;;;12.92;45.03;100901.03;5014372;28;20041;-77
2021/03/29 01:30:44;;;;;;;10.68;8.30;;;;;;;12.89;45.22;100907.50;5015364;28;20030;-76
2021/03/29 01:33:10;;;;;;;12.57;9.35;;;;;;;12.88;45.23;100902.34;5015121;28;20021;-76
2021/03/29 01:35:42;;;;;;;12.13;8.88;;;;;;;12.84;45.35;100916.91;5015427;28;20084;-77
2021/03/29 01:38:07;;;;;;;;;;;;;;;12.69;45.73;100908.72;5015635;28;20057;-75
2021/03/29 01:40:36;;;;;;;9.60;7.82;;;;;;;12.81;45.08;100903.97;5015312;28;19960;-76
2021/03/29 01:43:02;;;;;;;10.57;7.93;;;;;;;12.85;45.15;100905.31;5015404;28;20101;-76
2021/03/29 01:45:27;;;;;;;8.50;7.43;;;;;;;12.72;44.59;100879.25;5014909;28;20099;-76
2021/03/29 01:47:53;;;;;;;12.10;8.20;;;;;;;12.91;44.77;100902.03;5015092;28;20037;-76
2021/03/29 01:50:30;;;;;;;9.68;7.82;;;;;;;12.81;44.56;100896.84;5014927;28;20029;-76
2021/03/29 01:52:56;;;;;;;9.52;7.38;;;;;;;12.90;44.62;100903.84;5015212;28;20026;-76
2021/03/29 01:55:23;;;;;;;9.77;7.55;;;;;;;12.88;44.68;100903.19;5014921;28;20022;-76
2021/03/29 01:57:49;;;;;;;12.00;8.02;;;;;;;12.88;44.54;100905.00;5015059;28;20395;-77
2021/03/29 02:00:32;;;;;;;9.55;7.53;;;;;;;12.87;44.55;100901.53;5014703;28;20033;-76
2021/03/29 02:03:03;;;;;;;9.70;7.70;;;;;;;12.62;44.87;100873.22;5014775;28;20461;-76
2021/03/29 02:05:30;;;;;;;11.20;8.13;;;;;;;12.84;45.31;100901.84;5014744;28;20318;-76
2021/03/29 02:07:56;;;;;;;12.65;9.20;;;;;;;12.79;45.41;100901.50;5014875;28;20544;-76
2021/03/29 02:10:24;;;;;;;12.40;8.68;;;;;;;12.73;45.09;100902.13;5013764;28;20441;-76
2021/03/29 02:12:50;;;;;;;10.90;8.50;;;;;;;12.30;45.42;100848.22;5013713;28;20021;-76
2021/03/29 02:15:22;;;;;;;10.80;8.13;;;;;;;12.44;45.45;100870.66;5014729;28;20048;-76
2021/03/29 02:17:50;;;;;;;14.70;9.85;;;;;;;12.33;45.50;100855.88;5013853;28;20405;-76
2021/03/29 02:20:17;;;;;;;11.18;8.48;;;;;;;12.64;45.78;100897.78;5013659;28;20116;-76
2021/03/29 02:22:47;;;;;;;12.75;9.55;;;;;;;12.13;45.84;100811.22;5014665;28;20030;-76
2021/03/29 02:25:13;;;;;;;12.23;8.93;;;;;;;12.34;45.82;100857.53;5014436;28;20105;-76
2021/03/29 02:27:39;;;;;;;11.85;9.13;;;;;;;12.64;45.94;100895.13;5014788;28;20100;-76
2021/03/29 02:30:12;;;;;;;11.85;9.10;;;;;;;12.57;46.08;100892.25;5014659;28;20092;-76
2021/03/29 02:32:43;;;;;;;13.68;9.20;;;;;;;12.49;46.20;100883.44;5013642;28;20121;-76
2021/03/29 02:35:10;;;;;;;13.30;9.73;;;;;;;12.58;45.74;100896.56;5014531;28;20033;-76
2021/03/29 02:37:37;;;;;;;9.60;8.40;;;;;;;12.57;45.55;100894.06;5014529;28;20116;-76
2021/03/29 02:40:06;;;;;;;10.75;8.02;;;;;;;12.37;45.23;100870.47;5013469;28;20479;-76
2021/03/29 02:42:34;;;;;;;13.68;8.40;;;;;;;12.08;45.40;100824.94;5013554;28;20057;-76
2021/03/29 02:44:59;;;;;;;11.32;8.52;;;;;;;12.56;46.06;100898.53;5014461;28;20112;-76
2021/03/29 02:47:25;;;;;;;10.20;7.97;;;;;;;12.54;45.39;100897.88;5013369;28;20105;-76
2021/03/29 02:49:51;;;;;;;11.02;8.48;;;;;;;12.44;45.44;100888.38;5014596;28;20383;-75
2021/03/29 02:52:17;;;;;;;10.13;7.88;;;;;;;12.03;45.84;100825.41;5014353;28;20033;-76
2021/03/29 02:54:43;;;;;;;12.45;7.65;;;;;;;12.34;45.27;100888.47;5014366;28;20017;-76
2021/03/29 02:57:10;;;;;;;12.63;8.70;;;;;;;12.34;46.42;100885.81;5013290;28;20120;-75
2021/03/29 02:59:38;;;;;;;10.70;8.77;;;;;;;12.13;45.81;100865.00;5013486;28;20022;-75
2021/03/29 03:02:03;;;;;;;11.07;8.10;;;;;;;12.36;45.90;100899.75;5014603;28;20029;-75
2021/03/29 03:04:29;;;;;;;10.65;8.57;;;;;;;11.85;46.32;100824.59;5014276;28;20038;-75
2021/03/29 03:06:55;;;;;;;9.45;8.30;;;;;;;12.27;46.31;100900.69;5014617;28;20407;-76
2021/03/29 03:09:21;;;;;;;9.57;6.90;;;;;;;12.07;45.87;100861.19;5014236;28;20091;-76
2021/03/29 03:11:47;;;;;;;8.40;7.22;;;;;;;12.31;46.01;100904.69;5014345;28;20041;-76
2021/03/29 03:14:13;;;;;;;10.30;7.15;;;;;;;12.27;45.62;100901.50;5013229;28;20017;-76
2021/03/29 03:16:39;;;;;;;11.57;7.20;;;;;;;12.31;45.10;100896.75;5016687;28;20104;-76
2021/03/29 03:19:06;;;;;;;8.27;6.97;;;;;;;11.98;44.80;100840.94;5017887;28;20210;-76
2021/03/29 03:21:34;;;;;;;6.88;6.18;;;;;;;12.42;44.64;100909.72;5016683;28;20030;-76
2021/03/29 03:24:00;;;;;;;8.00;5.97;;;;;;;12.39;43.90;100897.63;5017717;28;20022;-76
2021/03/29 03:26:27;;;;;;;7.15;5.95;;;;;;;12.37;44.11;100896.94;5017531;28;20096;-76
2021/03/29 03:28:53;;;;;;;10.32;6.45;;;;;;;12.47;43.69;100911.91;5016658;28;20037;-76
2021/03/29 03:31:19;;;;;;;7.07;5.85;;;;;;;12.38;43.40;100903.91;5017523;28;20029;-76
2021/03/29 03:33:47;;;;;;;8.80;5.90;;;;;;;12.51;43.38;100915.88;5017622;28;20029;-76
2021/03/29 03:36:15;;;;;;;8.73;6.20;;;;;;;12.51;43.43;100900.81;5017483;28;20084;-76
2021/03/29 03:38:43;;;;;;;8.57;5.93;;;;;;;12.55;42.80;100917.25;5016356;28;20030;-76
2021/03/29 03:41:12;;;;;;;6.90;5.78;;;;;;;12.54;42.42;100919.06;5016179;28;20037;-76
2021/03/29 03:43:42;;;;;;;6.65;5.78;;;;;;;12.54;42.50;100921.72;5017317;28;20022;-76
2021/03/29 03:46:37;;;;;;;6.90;4.90;;;;;;;12.54;41.66;100929.66;5017210;28;20444;-76
2021/03/29 03:49:10;;;;;;;7.78;5.35;;;;;;;12.46;41.90;100910.22;5016248;28;20030;-76
2021/03/29 03:51:37;;;;;;;8.75;5.38;;;;;;;12.28;41.76;100894.41;5017279;28;20029;-76
2021/03/29 03:54:04;;;;;;;7.88;5.75;;;;;;;12.01;41.38;100858.31;5017209;28;20022;-76
2021/03/29 03:56:32;;;;;;;8.07;5.20;;;;;;;12.50;41.57;100940.72;5015931;28;20080;-76
2021/03/29 03:58:58;;;;;;;7.82;6.40;;;;;;;12.49;41.98;100934.59;5015999;28;20021;-76
2021/03/29 04:01:23;;;;;;;10.82;5.85;;;;;;;12.48;41.17;100940.03;5015876;28;20107;-76
2021/03/29 04:03:49;;;;;;;7.32;5.75;;;;;;;12.12;41.25;100894.28;5017003;28;20168;-76
2021/03/29 04:06:15;;;;;;;7.78;5.35;;;;;;;12.43;41.38;100942.34;5016765;28;20116;-76
2021/03/29 04:08:42;;;;;;;7.82;5.70;;;;;;;12.43;40.96;100948.47;5016936;28;20028;-76
2021/03/29 04:11:08;;;;;;;8.98;6.28;;;;;;;12.43;41.31;100940.50;5015793;28;20040;-77
2021/03/29 04:13:34;;;;;;;9.52;6.57;;;;;;;12.40;41.73;100940.81;5017059;28;20329;-77
2021/03/29 04:16:01;;;;;;;8.80;5.85;;;;;;;12.40;41.43;100951.41;5016773;28;20037;-76
2021/03/29 04:18:28;;;;;;;15.45;6.88;;;;;;;12.39;42.24;100957.69;5016527;28;20036;-76
2021/03/29 04:20:54;;;;;;;20.40;7.32;;;;;;;12.37;41.47;100957.03;5016623;28;20030;-76
2021/03/29 04:23:22;;;;;;;14.45;8.10;;;;;;;12.17;41.67;100921.13;5015397;28;20030;-76
2021/03/29 04:25:48;;;;;;;13.98;8.35;;;;;;;11.88;41.82;100889.63;5016436;28;20042;-76
2021/03/29 04:28:13;;;;;;;18.13;8.93;;;;;;;12.26;42.52;100958.09;5016289;28;20024;-76
2021/03/29 04:30:39;;;;;;;15.75;9.18;;;;;;;12.24;41.59;100967.19;5016454;28;20346;-76
2021/03/29 04:33:05;;;;;;;15.45;9.40;;;;;;;12.20;42.15;100979.91;5016264;28;20036;-76
2021/03/29 04:35:31;;;;;;;20.15;8.65;;;;;;;12.19;42.46;100962.34;5016144;28;20100;-76
2021/03/29 04:37:56;;;;;;;12.93;8.02;;;;;;;11.34;42.03;100823.50;5016580;28;20472;-76
2021/03/29 04:40:24;;;;;;;14.85;8.05;;;;;;;12.12;41.99;100965.78;5016152;28;20433;-77
2021/03/29 04:42:51;;;;;;;13.32;7.20;;;;;;;12.14;42.29;100975.22;5016282;28;20029;-76
2021/03/29 04:45:17;;;;;;;12.40;8.10;;;;;;;12.07;42.22;100960.94;5015982;28;20372;-76
2021/03/29 04:47:43;;;;;;;14.75;8.60;;;;;;;12.14;42.11;100980.53;5016119;28;20088;-76
2021/03/29 04:50:09;;;;;;;14.30;8.35;;;;;;;12.16;42.48;100977.72;5015969;28;20037;-76
2021/03/29 04:52:35;;;;;;;13.85;8.38;;;;;;;12.17;42.00;100982.88;5015945;28;20488;-76
2021/03/29 04:55:02;;;;;;;11.98;9.00;;;;;;;12.22;42.05;100982.41;5015991;28;20101;-76
2021/03/29 04:57:27;;;;;;;16.13;9.52;;;;;;;12.26;42.06;100989.88;5015794;28;20025;-77
2021/03/29 04:59:53;;;;;;;15.00;9.32;;;;;;;12.25;41.73;100982.09;5015924;28;20076;-76
2021/03/29 05:02:18;;;;;;;11.43;8.40;;;;;;;12.37;41.72;100992.28;5014687;28;20419;-77
2021/03/29 05:04:44;;;;;;;19.58;8.63;;;;;;;12.37;41.53;100991.47;5015776;28;20029;-77
2021/03/29 05:07:10;;;;;;;11.13;8.00;;;;;;;12.27;41.60;100972.19;5015566;28;20041;-76
2021/03/29 05:09:36;;;;;;;12.40;7.88;;;;;;;12.36;41.65;101003.03;5015769;28;20045;-76
2021/03/29 05:12:10;;;;;;;12.05;7.88;;;;;;;12.37;41.52;100965.81;5015747;28;20421;-76
2021/03/29 05:14:36;;;;;;;11.38;8.88;;;;;;;12.56;41.35;100983.31;5015734;28;20080;-76
2021/03/29 05:17:02;;;;;;;16.45;8.80;;;;;;;12.27;41.13;100941.25;5014665;28;20040;-76
2021/03/29 05:19:28;;;;;;;14.60;8.65;;;;;;;11.99;40.81;100894.69;5015415;28;20421;-76
2021/03/29 05:21:53;;;;;;;14.40;10.13;;;;;;;11.88;41.13;100885.16;5015329;28;20033;-76
2021/03/29 05:24:18;;;;;;;17.42;9.27;;;;;;;12.30;40.57;100943.56;5015351;28;20026;-76
2021/03/29 05:26:44;;;;;;;10.25;8.07;;;;;;;12.60;39.91;100989.97;5014380;28;20029;-76
2021/03/29 05:29:09;;;;;;;12.10;7.80;;;;;;;12.44;40.40;100966.00;5015277;28;20093;-76
2021/03/29 05:31:40;;;;;;;13.75;7.88;;;;;;;12.56;39.91;100987.78;5015414;28;20026;-77
2021/03/29 05:34:11;;;;;;;11.63;7.03;;;;;;;12.67;39.96;100998.16;5015239;28;20032;-76
2021/03/29 05:36:40;;;;;;;9.85;6.65;;;;;;;12.68;40.23;101000.66;5015277;28;20109;-76
2021/03/29 05:39:08;;;;;;;11.35;7.35;;;;;;;12.71;39.62;100999.50;5014609;28;20036;-75
2021/03/29 05:41:34;;;;;;;10.25;6.90;;;;;;;12.74;39.60;101015.09;5015115;28;20447;-76
2021/03/29 05:44:00;;;;;;;13.18;6.40;;;;;;;12.78;39.73;101005.00;5014995;28;20022;-76
2021/03/29 05:46:26;;;;;;;13.57;5.93;;;;;;;12.80;39.18;101011.81;5026183;28;20033;-76
2021/03/29 05:48:52;;;;;;;6.70;5.30;;;;;;;12.86;39.10;101011.19;5037516;28;20025;-76
2021/03/29 05:51:17;;;;;;;8.35;5.88;;;;;;;12.91;39.38;101014.19;5032710;28;20040;-76
2021/03/29 05:53:43;;;;;;;9.55;6.05;;;;;;;12.94;38.93;101018.34;5033145;28;20025;-76
2021/03/29 05:56:09;;;;;;;11.68;6.97;;;;;;;12.82;39.22;100985.16;5039084;28;20021;-76
2021/03/29 05:58:41;;;;;;;12.32;7.38;;;;;;;12.58;39.03;100943.41;5054640;28;20465;-76
2021/03/29 06:01:07;;;;;;;11.15;7.97;;;;;;;12.85;39.25;100990.13;5041082;28;20459;-76
2021/03/29 06:03:38;;;;;;;9.63;6.63;;;;;;;12.56;38.84;100943.56;5041759;28;20036;-75
2021/03/29 06:06:16;;;;;;;11.02;7.78;;;;;;;13.15;38.98;101029.41;5042126;28;20048;-76
2021/03/29 06:08:44;;;;;;;12.15;7.35;;;;;;;13.21;38.91;101028.81;5047070;28;20458;-75
2021/03/29 06:11:25;;;;;;;8.75;5.60;;;;;;;13.27;38.50;101027.34;5034508;28;20432;-76
2021/03/29 06:14:13;;;;;;;11.13;6.70;;;;;;;13.24;38.03;101049.69;5040773;28;20051;-75
2021/03/29 06:17:08;;;;;;;8.15;5.53;;;;;;;13.22;38.37;101033.13;5054672;28;20351;-76
2021/03/29 06:19:36;;;;;;;11.98;5.97;;;;;;;13.24;38.37;101030.31;5052640;28;20469;-76
2021/03/29 06:22:12;;;;;;;10.20;6.50;;;;;;;12.67;38.01;100943.34;5047087;28;20043;-75
2021/03/29 06:24:57;;;;;;;13.15;6.65;;;;;;;13.14;38.65;101022.44;5013554;28;20083;-76
2021/03/29 06:27:29;;;;;;;8.90;7.47;;;;;;;13.03;38.24;101023.53;5024024;28;20499;-76
2021/03/29 06:30:10;;;;;;;;;;;;;;;12.93;38.85;101037.91;5034729;28;20059;-76
2021/03/29 06:32:35;;;;;;;10.52;5.65;;;;;;;13.07;38.62;101041.78;5034368;28;19944;-76
2021/03/29 06:35:01;;;;;;;9.95;6.10;;;;;;;12.54;38.95;100960.63;5041816;28;20112;-76
2021/03/29 06:37:26;;;;;;;13.95;7.13;;;;;;;12.85;38.76;100990.13;5043753;28;20039;-78
2021/03/29 06:39:52;;;;;;;9.35;6.00;;;;;;;13.30;38.43;101050.88;5032052;28;20091;-76
2021/03/29 06:42:17;;;;;;;11.13;5.88;;;;;;;13.35;38.66;101052.06;5033313;28;20029;-76
2021/03/29 06:44:43;;;;;;;13.13;5.85;;;;;;;12.81;38.33;100941.09;5030537;28;20043;-76
2021/03/29 06:47:13;;;;;;;13.13;8.10;;;;;;;13.57;38.56;101048.03;5033564;28;20029;-76
2021/03/29 06:49:50;;;;;;;13.70;7.93;;;;;;;13.74;38.39;101043.63;5036710;28;20499;-77
2021/03/29 06:52:23;;;;;;;15.50;7.30;;;;;;;13.79;37.90;101053.75;5041411;28;20099;-77
2021/03/29 06:54:49;;;;;;;11.43;5.63;;;;;;;13.75;37.71;101044.44;5036842;28;20084;-76
2021/03/29 06:57:31;;;;;;;12.63;5.47;;;;;;;13.69;37.38;101045.94;5039434;28;20041;-77
2021/03/29 06:59:57;;;;;;;8.32;5.50;;;;;;;13.83;37.95;101045.28;5027789;28;20416;-76
2021/03/29 07:02:44;;;;;;;10.65;6.35;;;;;;;13.83;37.60;101047.94;5036187;28;20043;-77
2021/03/29 07:05:10;;;;;;;8.68;5.63;;;;;;;13.79;37.32;101051.94;5039428;28;20033;-76
2021/03/29 07:07:37;;;;;;;10.38;5.50;;;;;;;13.83;37.01;101047.13;5036807;28;20029;-76
2021/03/29 07:10:05;;;;;;;8.57;5.13;;;;;;;13.40;37.59;101001.22;5042567;28;20170;-76
2021/03/29 07:12:37;;;;;;;9.75;4.60;;;;;;;13.22;37.46;100969.47;5034755;28;20337;-79
2021/03/29 07:15:04;;;;;;;;;;;;;;;13.64;37.07;101040.28;5036423;28;20029;-77
2021/03/29 07:17:35;;;;;;;14.48;6.35;;;;;;;13.82;37.34;101051.59;5037453;28;19920;-77
2021/03/29 07:20:02;;;;;;;7.53;5.35;;;;;;;13.76;36.78;101027.53;5037574;28;20029;-77
2021/03/29 07:22:30;;;;;;;9.18;4.32;;;;;;;13.73;36.21;101033.16;5036070;28;20448;-77
2021/03/29 07:25:02;;;;;;;8.35;4.65;;;;;;;13.74;36.56;101013.59;5038189;28;20368;-77
2021/03/29 07:27:29;;;;;;;;;;;;;;;13.87;35.49;101051.94;5035787;28;20325;-76
2021/03/29 07:29:55;;;;;;;8.85;4.55;;;;;;;13.58;36.83;100971.91;5036203;28;19917;-77
2021/03/29 07:32:32;;;;;;;5.65;3.92;;;;;;;13.83;36.63;101013.44;5035255;28;20444;-78
2021/03/29 07:34:58;;;;;;;10.43;4.68;;;;;;;14.23;36.06;101044.56;5036842;28;20038;-78
2021/03/29 07:37:41;;;;;;;7.05;4.30;;;;;;;14.15;35.88;101038.41;5047380;28;20424;-76
2021/03/29 07:40:15;;;;;;;5.82;3.80;;;;;;;14.25;35.95;101037.25;5037047;28;20099;-77
2021/03/29 07:42:43;;;;;;;5.32;3.70;;;;;;;14.03;35.46;100987.41;5041645;28;20041;-77
2021/03/29 07:45:14;;;;;;;8.02;4.40;;;;;;;14.22;35.92;101016.31;5047421;28;20031;-76
2021/03/29 07:47:48;;;;;;;5.95;4.00;;;;;;;14.37;35.15;101013.84;5035720;28;20501;-76
2021/03/29 07:50:24;;;;;;;5.88;4.10;;;;;;;14.49;35.30;101025.00;5027784;28;20040;-76
2021/03/29 07:53:06;;;;;;;10.38;4.68;;;;;;;14.55;34.63;101027.81;5029572;28;20044;-77
2021/03/29 07:55:36;;;;;;;6.25;3.50;;;;;;;14.56;34.81;101026.81;5036372;28;20128;-77
2021/03/29 07:58:03;;;;;;;5.53;3.85;;;;;;;14.56;34.42;101032.13;5034348;28;20029;-79
2021/03/29 08:00:31;;;;;;;8.95;4.28;;;;;;;14.53;34.22;101028.97;5038417;28;20041;-77
2021/03/29 08:03:13;;;;;;;7.97;4.05;;;;;;;14.23;33.56;100990.59;5037717;28;20029;-77
2021/03/29 08:05:41;;;;;;;5.15;3.65;;;;;;;14.54;33.78;101034.13;5016404;28;20041;-77
2021/03/29 08:08:32;;;;;;;6.20;4.05;;;;;;;14.35;33.79;100986.59;5025057;28;20679;-76
2021/03/29 08:11:02;;;;;;;7.10;4.40;;;;;;;14.69;33.61;101030.78;5051932;28;20040;-76
2021/03/29 08:13:42;;;;;;;7.32;4.63;;;;;;;14.78;33.64;101032.44;5043863;28;20034;-76
2021/03/29 08:16:22;;;;;;;5.95;4.00;;;;;;;14.80;33.20;101020.63;5036350;28;20025;-75
2021/03/29 08:19:06;;;;;;;6.85;5.38;;;;;;;14.85;33.15;101020.13;5036313;28;20029;-76
2021/03/29 08:21:52;;;;;;;7.32;4.38;;;;;;;14.87;32.35;101023.47;5034401;28;20072;-76
2021/03/29 08:24:29;;;;;;;6.10;5.07;;;;;;;14.91;32.63;101014.97;5034050;28;20030;-77
2021/03/29 08:26:56;;;;;;;7.35;4.22;;;;;;;14.55;32.82;100950.72;5035945;28;20032;-78
2021/03/29 08:29:28;;;;;;;11.55;6.50;;;;;;;15.13;32.83;101021.41;5046376;28;20104;-76
2021/03/29 08:32:02;;;;;;;11.25;7.70;;;;;;;15.28;32.62;101026.81;5037477;28;20061;-78
2021/03/29 08:34:36;;;;;;;10.27;7.45;;;;;;;15.31;32.32;101010.50;5029984;28;20025;-79
2021/03/29 08:37:06;;;;;;;8.70;6.97;;;;;;;15.50;32.09;101019.91;5031141;28;20032;-78
2021/03/29 08:39:38;;;;;;;6.15;4.63;;;;;;;15.15;31.42;100952.06;5047263;28;20098;-77
2021/03/29 08:42:04;;;;;;;14.13;8.32;;;;;;;15.68;31.85;101020.53;5037736;28;20033;-78
2021/03/29 08:44:31;;;;;;;8.45;5.80;;;;;;;15.45;31.45;100951.22;5044365;28;20082;-79
2021/03/29 08:46:57;;;;;;;6.60;3.97;;;;;;;15.97;31.04;101022.53;5042461;28;20037;-77
2021/03/29 08:49:24;;;;;;;7.32;4.30;;;;;;;16.08;30.92;101022.09;5039434;28;20041;-78
2021/03/29 08:51:54;;;;;;;8.10;4.45;;;;;;;16.15;30.81;101004.41;5030299;28;20053;-77
2021/03/29 08:54:19;;;;;;;6.70;4.30;;;;;;;16.40;30.58;101010.38;5030680;28;20022;-77
2021/03/29 08:56:54;;;;;;;5.03;3.70;;;;;;;16.12;30.06;100955.97;5033780;28;20033;-77
2021/03/29 08:59:26;;;;;;;5.50;3.78;;;;;;;16.61;30.13;101024.88;5033256;28;20052;-77
2021/03/29 09:01:52;;;;;;;7.00;4.47;;;;;;;16.72;30.17;100995.13;5032756;28;21026;-77
2021/03/29 09:04:18;;;;;;;7.60;5.07;;;;;;;16.92;29.91;101008.75;5035240;28;20113;-77
2021/03/29 09:06:43;;;;;;;9.52;6.05;;;;;;;17.11;29.80;101003.72;5033244;28;20040;-78
2021/03/29 09:09:17;;;;;;;9.52;4.95;;;;;;;17.20;29.39;101004.44;5030155;28;20052;-77
2021/03/29 09:11:47;;;;;;;7.82;3.85;;;;;;;17.35;29.21;101002.56;5029264;28;20033;-77
2021/03/29 09:14:15;;;;;;;8.52;3.70;;;;;;;17.31;28.94;100973.78;5032859;28;20033;-78
2021/03/29 09:16:44;;;;;;;6.40;4.05;;;;;;;17.34;28.85;100995.56;5034249;28;20040;-77
2021/03/29 09:19:17;;;;;;;7.85;3.92;;;;;;;17.00;28.72;100939.28;5034368;28;20436;-77
2021/03/29 09:21:56;;;;;;;5.50;4.18;;;;;;;17.37;28.62;100979.19;5033844;28;20033;-81
2021/03/29 09:24:26;;;;;;;7.10;5.47;;;;;;;17.49;28.78;100966.19;5032930;28;20044;-77
2021/03/29 09:26:59;;;;;;;6.82;4.05;;;;;;;17.68;28.73;100978.13;5031175;28;20029;-77
2021/03/29 09:29:33;;;;;;;6.82;4.32;;;;;;;17.65;28.05;100965.13;5032611;28;20035;-77
2021/03/29 09:32:03;;;;;;;6.60;4.40;;;;;;;17.65;28.45;100983.81;5029263;28;20099;-78
2021/03/29 09:34:30;;;;;;;6.50;4.60;;;;;;;17.66;28.52;100959.63;5029281;28;20029;-76
2021/03/29 09:36:55;;;;;;;8.68;4.68;;;;;;;17.93;28.13;100974.09;5030562;28;20040;-76
2021/03/29 09:39:22;;;;;;;6.95;4.20;;;;;;;17.83;27.08;100962.88;5033465;28;20355;-75
2021/03/29 09:41:50;;;;;;;4.60;3.13;;;;;;;17.53;26.35;100910.53;5033058;28;20030;-75
2021/03/29 09:44:15;;;;;;;4.13;3.15;;;;;;;18.15;25.87;100971.41;5034540;28;20112;-77
2021/03/29 09:46:41;;;;;;;4.57;3.10;;;;;;;17.70;25.82;100934.19;5034814;28;20105;-79
2021/03/29 09:49:13;;;;;;;6.40;3.53;;;;;;;18.01;25.24;100973.97;5033662;28;20021;-76
2021/03/29 09:51:40;;;;;;;4.88;3.13;;;;;;;18.13;25.71;100952.88;5032792;28;20033;-78
2021/03/29 09:54:35;;;;;;;4.07;3.55;;;;;;;18.45;24.30;100956.84;5033571;28;20021;-75
2021/03/29 09:57:21;;;;;;;5.82;3.42;;;;;;;18.39;24.29;100957.63;5032436;28;20034;-77
2021/03/29 09:59:48;;;;;;;5.80;3.72;;;;;;;18.38;25.27;100956.78;5037017;28;20048;-76
2021/03/29 10:02:26;;;;;;;4.30;2.70;;;;;;;18.20;25.36;100908.31;5034831;28;20424;-75
2021/03/29 10:05:10;;;;;;;6.13;3.80;;;;;;;18.70;25.16;100960.78;5029319;28;20041;-78
2021/03/29 10:07:48;;;;;;;6.18;2.90;;;;;;;18.81;24.49;100940.66;5043771;28;20041;-77
2021/03/29 10:10:13;;;;;;;5.70;3.80;;;;;;;18.98;24.76;100927.78;5046353;28;20029;-78
2021/03/29 10:12:39;;;;;;;5.65;4.20;;;;;;;19.16;24.11;100917.34;5045166;28;20029;-79
2021/03/29 10:15:12;;;;;;;6.82;3.60;;;;;;;19.37;23.18;100948.53;5031817;28;20104;-77
2021/03/29 10:17:38;;;;;;;6.28;4.32;;;;;;;19.54;24.52;100941.00;5034700;28;20029;-79
2021/03/29 10:20:08;;;;;;;5.07;3.38;;;;;;;18.80;24.07;100802.53;5045179;28;20351;-78
2021/03/29 10:22:35;;;;;;;6.53;3.33;;;;;;;19.68;23.89;100908.66;5051198;28;20044;-76
2021/03/29 10:25:17;;;;;;;8.65;4.20;;;;;;;19.99;24.12;100937.56;5055807;28;20029;-76
2021/03/29 10:27:50;;;;;;;5.95;3.72;;;;;;;20.09;24.21;100933.66;5057048;28;20183;-77
2021/03/29 10:30:19;;;;;;;7.38;4.00;;;;;;;20.34;23.94;100923.13;5044911;28;20044;-76
2021/03/29 10:33:05;;;;;;;6.72;3.67;;;;;;;20.49;23.76;100916.53;5036441;28;20041;-76
2021/03/29 10:35:32;;;;;;;8.63;3.95;;;;;;;20.69;23.87;100915.66;5027947;28;20072;-76
2021/03/29 10:38:00;;;;;;;6.85;3.78;;;;;;;20.84;23.68;100910.91;5032721;28;20428;-75
2021/03/29 10:40:25;;;;;;;6.95;3.67;;;;;;;21.04;23.39;100906.28;5047333;28;20021;-78
2021/03/29 10:42:51;;;;;;;6.80;3.88;;;;;;;21.10;23.33;100921.53;5044635;28;20036;-77
2021/03/29 10:45:18;;;;;;;6.30;3.00;;;;;;;21.01;22.98;100890.59;5032993;28;20097;-76
2021/03/29 10:47:45;;;;;;;5.13;3.38;;;;;;;21.21;22.97;100906.59;5051237;28;20163;-75
2021/03/29 10:50:13;;;;;;;8.50;3.47;;;;;;;21.04;22.51;100894.69;5035747;28;20028;-77
2021/03/29 10:52:39;;;;;;;4.78;3.38;;;;;;;21.19;22.44;100889.88;5037809;28;20078;-78
2021/03/29 10:55:06;;;;;;;3.35;2.60;;;;;;;21.45;22.51;100897.00;5034688;28;20169;-77
2021/03/29 10:57:31;;;;;;;7.40;5.28;;;;;;;20.99;22.08;100851.56;5042712;28;20439;-79
2021/03/29 10:59:57;;;;;;;7.03;3.53;;;;;;;21.24;22.14;100845.25;5040337;28;20037;-78
2021/03/29 11:02:23;;;;;;;7.93;3.95;;;;;;;21.44;22.02;100863.91;5051947;28;20029;-77
2021/03/29 11:04:49;;;;;;;6.88;3.92;;;;;;;21.64;21.95;100889.88;5055596;28;20021;-76
2021/03/29 11:07:14;;;;;;;5.45;2.80;;;;;;;21.38;21.86;100842.47;5054181;28;20553;-76
2021/03/29 11:09:40;;;;;;;4.93;3.00;;;;;;;21.68;21.69;100850.75;5053992;28;20434;-76
2021/03/29 11:12:07;;;;;;;9.30;4.15;;;;;;;21.87;21.69;100869.41;5040046;28;20447;-76
2021/03/29 11:14:33;;;;;;;5.60;4.25;;;;;;;21.86;21.55;100832.81;5054731;28;20025;-78
2021/03/29 11:16:58;;;;;;;4.43;2.88;;;;;;;22.13;21.49;100854.09;5052050;28;20116;-76
2021/03/29 11:19:24;;;;;;;4.05;3.22;;;;;;;22.22;21.41;100823.19;5057098;28;20025;-79
2021/03/29 11:21:51;;;;;;;7.65;3.63;;;;;;;22.47;21.22;100842.81;5039185;28;20040;-77
2021/03/29 11:24:20;;;;;;;7.35;3.17;;;;;;;22.39;20.96;100840.41;5037625;28;20359;-78
2021/03/29 11:26:46;;;;;;;6.43;4.47;;;;;;;22.18;21.48;100812.03;5032295;28;20368;-75
2021/03/29 11:29:12;;;;;;;5.03;3.50;;;;;;;22.50;21.18;100830.75;5032555;28;20025;-77
2021/03/29 11:31:40;;;;;;;7.88;3.28;;;;;;;22.43;21.00;100838.91;5031319;28;20063;-75